Terminal Aerodrome Forecast
Issued by NWS

Current Version | Previous Version | Text Only | Print | Product List | Glossary On
Versions: 1 2 3 4 5 6 7 8 9 10 11 12 13 14 15 16 17 18 19 20 21 22 23 24 25
639
FTUS41 KCAR 190825 AAA
TAFPQI
TAF AMD
KPQI 190825Z 1908/2006 12009KT 6SM -FZRAPL BR BKN015 OVC030
      TEMPO 1909/1911 3SM -FZRAPL BR OVC008
     FM191100 12011G19KT 4SM -RA BR BKN008 OVC015
     FM191500 13012G20KT 2SM -RA BR OVC005
     FM192100 22010G21KT P6SM VCSH OVC005
     FM192300 24012G25KT P6SM BKN008
     FM200100 25014G27KT P6SM BKN025=

USA.gov is the U.S. government's official web portal to all federal, state and local government web resources and services.